sensor_id;sensor_type;location;lat;lon;timestamp;temperature;humidity
52859;DHT22;38721;53.098;6.596;2022-08-11T00:02:32;16.40;99.90
52859;DHT22;38721;53.098;6.596;2022-08-11T00:05:05;16.40;1.00
52859;DHT22;38721;53.098;6.596;2022-08-11T00:07:31;16.40;99.90
52859;DHT22;38721;53.098;6.596;2022-08-11T00:09:59;16.20;99.90
52859;DHT22;38721;53.098;6.596;2022-08-11T00:12:25;16.20;99.90
52859;DHT22;38721;53.098;6.596;2022-08-11T00:14:58;16.20;99.90
52859;DHT22;38721;53.098;6.596;2022-08-11T00:17:30;16.10;99.90
52859;DHT22;38721;53.098;6.596;2022-08-11T00:20:06;16.30;1.00
52859;DHT22;38721;53.098;6.596;2022-08-11T00:22:34;16.30;1.00
52859;DHT22;38721;53.098;6.596;2022-08-11T00:25:12;16.20;1.00
52859;DHT22;38721;53.098;6.596;2022-08-11T00:27:39;16.10;99.90
52859;DHT22;38721;53.098;6.596;2022-08-11T00:30:07;16.10;1.00
52859;DHT22;38721;53.098;6.596;2022-08-11T00:32:34;16.20;1.00
52859;DHT22;38721;53.098;6.596;2022-08-11T00:35:01;16.10;99.90
52859;DHT22;38721;53.098;6.596;2022-08-11T00:37:29;16.10;1.00
52859;DHT22;38721;53.098;6.596;2022-08-11T00:39:56;16.00;1.00
52859;DHT22;38721;53.098;6.596;2022-08-11T00:45:41;15.90;1.00
52859;DHT22;38721;53.098;6.596;2022-08-11T00:48:35;15.90;92.00
52859;DHT22;38721;53.098;6.596;2022-08-11T00:56:57;15.60;1.00
52859;DHT22;38721;53.098;6.596;2022-08-11T01:02:25;15.70;99.90
52859;DHT22;38721;53.098;6.596;2022-08-11T01:16:17;15.60;91.30
52859;DHT22;38721;53.098;6.596;2022-08-11T01:36:46;15.50;99.90
52859;DHT22;38721;53.098;6.596;2022-08-11T01:45:40;15.50;99.90
52859;DHT22;38721;53.098;6.596;2022-08-11T01:48:42;15.50;99.90
52859;DHT22;38721;53.098;6.596;2022-08-11T01:59:38;15.40;1.00
52859;DHT22;38721;53.098;6.596;2022-08-11T02:02:20;15.30;99.90
52859;DHT22;38721;53.098;6.596;2022-08-11T02:08:09;15.30;1.00
52859;DHT22;38721;53.098;6.596;2022-08-11T02:18:37;15.10;99.90
52859;DHT22;38721;53.098;6.596;2022-08-11T02:21:29;15.20;92.10
52859;DHT22;38721;53.098;6.596;2022-08-11T02:24:34;15.20;99.90
52859;DHT22;38721;53.098;6.596;2022-08-11T02:27:21;15.20;99.90
52859;DHT22;38721;53.098;6.596;2022-08-11T02:30:13;15.10;1.00
52859;DHT22;38721;53.098;6.596;2022-08-11T02:33:21;15.10;17.00
52859;DHT22;38721;53.098;6.596;2022-08-11T02:35:57;15.10;65.70
52859;DHT22;38721;53.098;6.596;2022-08-11T02:49:51;14.90;99.90
52859;DHT22;38721;53.098;6.596;2022-08-11T03:00:56;15.00;99.90
52859;DHT22;38721;53.098;6.596;2022-08-11T03:03:43;15.00;99.90
52859;DHT22;38721;53.098;6.596;2022-08-11T03:06:34;15.00;99.90
52859;DHT22;38721;53.098;6.596;2022-08-11T03:09:16;15.00;99.90
52859;DHT22;38721;53.098;6.596;2022-08-11T03:12:10;15.00;99.90
52859;DHT22;38721;53.098;6.596;2022-08-11T03:15:27;15.00;99.90
52859;DHT22;38721;53.098;6.596;2022-08-11T03:18:41;15.00;99.90
52859;DHT22;38721;53.098;6.596;2022-08-11T03:21:24;15.10;99.90
52859;DHT22;38721;53.098;6.596;2022-08-11T03:27:10;15.10;99.90
52859;DHT22;38721;53.098;6.596;2022-08-11T03:29:43;15.10;1.00
52859;DHT22;38721;53.098;6.596;2022-08-11T03:32:27;15.00;99.90
52859;DHT22;38721;53.098;6.596;2022-08-11T03:34:56;14.90;99.90
52859;DHT22;38721;53.098;6.596;2022-08-11T03:46:34;15.10;1.00
52859;DHT22;38721;53.098;6.596;2022-08-11T03:52:22;15.00;1.00
52859;DHT22;38721;53.098;6.596;2022-08-11T03:55:08;15.00;1.00
52859;DHT22;38721;53.098;6.596;2022-08-11T03:58:03;15.10;1.00
52859;DHT22;38721;53.098;6.596;2022-08-11T04:00:57;15.00;1.00
52859;DHT22;38721;53.098;6.596;2022-08-11T04:09:32;15.00;3.90
52859;DHT22;38721;53.098;6.596;2022-08-11T04:18:24;15.00;99.90
52859;DHT22;38721;53.098;6.596;2022-08-11T04:23:46;15.00;7.70
52859;DHT22;38721;53.098;6.596;2022-08-11T04:34:43;15.10;52.50
52859;DHT22;38721;53.098;6.596;2022-08-11T04:43:41;15.10;11.40
52859;DHT22;38721;53.098;6.596;2022-08-11T04:49:15;15.20;36.30
52859;DHT22;38721;53.098;6.596;2022-08-11T04:58:26;15.30;23.80
52859;DHT22;38721;53.098;6.596;2022-08-11T05:01:36;15.40;59.90
52859;DHT22;38721;53.098;6.596;2022-08-11T05:13:04;15.70;25.20
52859;DHT22;38721;53.098;6.596;2022-08-11T05:15:57;15.80;1.00
52859;DHT22;38721;53.098;6.596;2022-08-11T05:18:49;15.90;1.00
52859;DHT22;38721;53.098;6.596;2022-08-11T05:21:35;16.10;1.00
52859;DHT22;38721;53.098;6.596;2022-08-11T05:24:29;16.20;1.00
52859;DHT22;38721;53.098;6.596;2022-08-11T05:27:14;16.30;1.00
52859;DHT22;38721;53.098;6.596;2022-08-11T05:30:10;16.50;1.00
52859;DHT22;38721;53.098;6.596;2022-08-11T05:33:29;16.60;1.00
52859;DHT22;38721;53.098;6.596;2022-08-11T05:36:39;16.80;1.00
52859;DHT22;38721;53.098;6.596;2022-08-11T05:39:16;16.90;99.90
52859;DHT22;38721;53.098;6.596;2022-08-11T05:42:04;17.00;99.90
52859;DHT22;38721;53.098;6.596;2022-08-11T05:44:50;17.20;99.90
52859;DHT22;38721;53.098;6.596;2022-08-11T05:47:37;17.30;99.90
52859;DHT22;38721;53.098;6.596;2022-08-11T05:50:22;17.30;99.90
52859;DHT22;38721;53.098;6.596;2022-08-11T05:53:12;17.40;99.90
52859;DHT22;38721;53.098;6.596;2022-08-11T05:55:57;17.50;99.90
52859;DHT22;38721;53.098;6.596;2022-08-11T05:58:48;17.60;99.90
52859;DHT22;38721;53.098;6.596;2022-08-11T06:01:26;17.70;1.00
52859;DHT22;38721;53.098;6.596;2022-08-11T06:03:55;17.80;1.00
52859;DHT22;38721;53.098;6.596;2022-08-11T06:07:02;17.80;1.00
52859;DHT22;38721;53.098;6.596;2022-08-11T06:12:24;18.00;99.90
52859;DHT22;38721;53.098;6.596;2022-08-11T06:14:55;18.10;99.90
52859;DHT22;38721;53.098;6.596;2022-08-11T06:17:27;18.10;99.90
52859;DHT22;38721;53.098;6.596;2022-08-11T06:20:04;18.20;99.90
52859;DHT22;38721;53.098;6.596;2022-08-11T06:22:32;18.40;99.90
52859;DHT22;38721;53.098;6.596;2022-08-11T06:25:02;18.40;43.00
52859;DHT22;38721;53.098;6.596;2022-08-11T06:27:31;18.40;1.00
52859;DHT22;38721;53.098;6.596;2022-08-11T06:29:58;18.50;1.00
52859;DHT22;38721;53.098;6.596;2022-08-11T06:32:27;18.60;1.00
52859;DHT22;38721;53.098;6.596;2022-08-11T06:48:15;19.20;99.90
52859;DHT22;38721;53.098;6.596;2022-08-11T06:50:52;19.30;99.90
52859;DHT22;38721;53.098;6.596;2022-08-11T06:53:46;19.40;99.90
52859;DHT22;38721;53.098;6.596;2022-08-11T06:56:14;19.40;42.50
52859;DHT22;38721;53.098;6.596;2022-08-11T06:59:00;19.60;1.00
52859;DHT22;38721;53.098;6.596;2022-08-11T07:02:04;19.70;1.00
52859;DHT22;38721;53.098;6.596;2022-08-11T07:04:50;19.70;99.90
52859;DHT22;38721;53.098;6.596;2022-08-11T07:13:58;20.10;99.90
52859;DHT22;38721;53.098;6.596;2022-08-11T07:16:44;20.20;99.90
52859;DHT22;38721;53.098;6.596;2022-08-11T07:19:26;20.30;93.20
52859;DHT22;38721;53.098;6.596;2022-08-11T07:22:14;20.40;28.50
52859;DHT22;38721;53.098;6.596;2022-08-11T07:25:12;20.50;46.30
52859;DHT22;38721;53.098;6.596;2022-08-11T07:28:10;20.50;87.20
52859;DHT22;38721;53.098;6.596;2022-08-11T07:31:06;20.70;1.00
52859;DHT22;38721;53.098;6.596;2022-08-11T07:33:49;20.80;1.00
52859;DHT22;38721;53.098;6.596;2022-08-11T07:36:16;20.90;99.90
52859;DHT22;38721;53.098;6.596;2022-08-11T07:38:47;21.10;1.00
52859;DHT22;38721;53.098;6.596;2022-08-11T07:41:17;21.10;99.90
52859;DHT22;38721;53.098;6.596;2022-08-11T07:43:45;21.20;99.90
52859;DHT22;38721;53.098;6.596;2022-08-11T07:46:14;21.20;99.90
52859;DHT22;38721;53.098;6.596;2022-08-11T07:49:01;21.30;99.90
52859;DHT22;38721;53.098;6.596;2022-08-11T07:51:46;21.40;99.90
52859;DHT22;38721;53.098;6.596;2022-08-11T07:54:31;21.60;99.90
52859;DHT22;38721;53.098;6.596;2022-08-11T07:56:58;21.80;99.90
52859;DHT22;38721;53.098;6.596;2022-08-11T07:59:24;21.90;99.90
52859;DHT22;38721;53.098;6.596;2022-08-11T08:02:11;22.00;99.90
52859;DHT22;38721;53.098;6.596;2022-08-11T08:04:57;22.00;99.90
52859;DHT22;38721;53.098;6.596;2022-08-11T08:07:42;22.20;99.90
52859;DHT22;38721;53.098;6.596;2022-08-11T08:10:27;22.40;99.90
52859;DHT22;38721;53.098;6.596;2022-08-11T08:13:15;22.40;99.90
52859;DHT22;38721;53.098;6.596;2022-08-11T08:15:59;22.50;75.00
52859;DHT22;38721;53.098;6.596;2022-08-11T08:18:44;22.60;99.90
52859;DHT22;38721;53.098;6.596;2022-08-11T08:21:10;22.90;85.60
52859;DHT22;38721;53.098;6.596;2022-08-11T08:23:38;22.90;99.90
52859;DHT22;38721;53.098;6.596;2022-08-11T08:26:06;22.90;1.00
52859;DHT22;38721;53.098;6.596;2022-08-11T08:28:54;23.00;12.50
52859;DHT22;38721;53.098;6.596;2022-08-11T08:31:42;23.20;99.90
52859;DHT22;38721;53.098;6.596;2022-08-11T08:34:08;23.40;99.90
52859;DHT22;38721;53.098;6.596;2022-08-11T08:36:35;23.60;99.90
52859;DHT22;38721;53.098;6.596;2022-08-11T08:39:02;23.60;99.90
52859;DHT22;38721;53.098;6.596;2022-08-11T08:41:31;23.80;99.90
52859;DHT22;38721;53.098;6.596;2022-08-11T08:44:05;23.80;99.90
52859;DHT22;38721;53.098;6.596;2022-08-11T08:46:40;24.00;99.90
52859;DHT22;38721;53.098;6.596;2022-08-11T08:49:06;24.30;99.90
52859;DHT22;38721;53.098;6.596;2022-08-11T08:51:37;24.20;99.90
52859;DHT22;38721;53.098;6.596;2022-08-11T08:54:08;24.40;99.90
52859;DHT22;38721;53.098;6.596;2022-08-11T08:56:39;24.60;99.90
52859;DHT22;38721;53.098;6.596;2022-08-11T08:59:05;24.70;99.90
52859;DHT22;38721;53.098;6.596;2022-08-11T09:01:36;24.70;99.90
52859;DHT22;38721;53.098;6.596;2022-08-11T09:04:09;24.90;99.90
52859;DHT22;38721;53.098;6.596;2022-08-11T09:06:40;25.00;99.90
52859;DHT22;38721;53.098;6.596;2022-08-11T09:09:10;24.90;22.70
52859;DHT22;38721;53.098;6.596;2022-08-11T09:11:38;25.10;1.00
52859;DHT22;38721;53.098;6.596;2022-08-11T09:14:22;25.30;1.00
52859;DHT22;38721;53.098;6.596;2022-08-11T09:16:49;25.40;1.00
52859;DHT22;38721;53.098;6.596;2022-08-11T09:19:17;25.60;1.00
52859;DHT22;38721;53.098;6.596;2022-08-11T09:21:48;25.70;99.90
52859;DHT22;38721;53.098;6.596;2022-08-11T09:24:35;25.70;1.00
52859;DHT22;38721;53.098;6.596;2022-08-11T09:27:23;26.00;1.00
52859;DHT22;38721;53.098;6.596;2022-08-11T09:29:50;26.20;99.90
52859;DHT22;38721;53.098;6.596;2022-08-11T09:32:21;26.30;99.90
52859;DHT22;38721;53.098;6.596;2022-08-11T09:34:49;26.50;99.90
52859;DHT22;38721;53.098;6.596;2022-08-11T09:37:16;26.60;99.90
52859;DHT22;38721;53.098;6.596;2022-08-11T09:40:02;26.60;99.90
52859;DHT22;38721;53.098;6.596;2022-08-11T09:42:47;26.80;99.90
52859;DHT22;38721;53.098;6.596;2022-08-11T09:45:33;26.80;99.90
52859;DHT22;38721;53.098;6.596;2022-08-11T09:47:59;27.10;99.90
52859;DHT22;38721;53.098;6.596;2022-08-11T09:50:31;27.10;99.90
52859;DHT22;38721;53.098;6.596;2022-08-11T09:52:59;27.30;99.90
52859;DHT22;38721;53.098;6.596;2022-08-11T09:55:31;27.30;99.90
52859;DHT22;38721;53.098;6.596;2022-08-11T09:57:57;27.40;99.90
52859;DHT22;38721;53.098;6.596;2022-08-11T10:00:44;27.50;99.90
52859;DHT22;38721;53.098;6.596;2022-08-11T10:03:23;27.80;99.90
52859;DHT22;38721;53.098;6.596;2022-08-11T10:05:59;27.90;99.90
52859;DHT22;38721;53.098;6.596;2022-08-11T10:08:45;27.90;99.90
52859;DHT22;38721;53.098;6.596;2022-08-11T10:11:15;27.90;99.90
52859;DHT22;38721;53.098;6.596;2022-08-11T10:13:48;28.00;92.60
52859;DHT22;38721;53.098;6.596;2022-08-11T10:16:38;28.10;89.20
52859;DHT22;38721;53.098;6.596;2022-08-11T10:19:08;28.00;63.60
52859;DHT22;38721;53.098;6.596;2022-08-11T10:21:51;28.00;42.80
52859;DHT22;38721;53.098;6.596;2022-08-11T10:24:37;28.10;43.70
52859;DHT22;38721;53.098;6.596;2022-08-11T10:27:22;28.40;51.80
52859;DHT22;38721;53.098;6.596;2022-08-11T10:29:48;28.60;46.60
52859;DHT22;38721;53.098;6.596;2022-08-11T10:32:34;28.60;25.60
52859;DHT22;38721;53.098;6.596;2022-08-11T10:35:20;28.90;34.30
52859;DHT22;38721;53.098;6.596;2022-08-11T10:37:48;29.00;21.00
52859;DHT22;38721;53.098;6.596;2022-08-11T10:40:16;29.00;15.70
52859;DHT22;38721;53.098;6.596;2022-08-11T10:42:42;29.10;18.30
52859;DHT22;38721;53.098;6.596;2022-08-11T10:45:33;29.10;12.70
52859;DHT22;38721;53.098;6.596;2022-08-11T10:48:20;29.30;1.00
52859;DHT22;38721;53.098;6.596;2022-08-11T10:50:47;29.40;1.10
52859;DHT22;38721;53.098;6.596;2022-08-11T10:53:33;29.60;5.10
52859;DHT22;38721;53.098;6.596;2022-08-11T10:56:19;29.20;1.00
52859;DHT22;38721;53.098;6.596;2022-08-11T10:59:06;29.40;1.00
52859;DHT22;38721;53.098;6.596;2022-08-11T11:01:36;29.40;1.00
52859;DHT22;38721;53.098;6.596;2022-08-11T11:04:12;29.40;1.00
52859;DHT22;38721;53.098;6.596;2022-08-11T11:06:55;29.50;1.00
52859;DHT22;38721;53.098;6.596;2022-08-11T11:09:31;29.50;1.00
52859;DHT22;38721;53.098;6.596;2022-08-11T11:14:56;29.30;1.00
52859;DHT22;38721;53.098;6.596;2022-08-11T11:17:47;29.10;1.00
52859;DHT22;38721;53.098;6.596;2022-08-11T11:23:27;29.90;1.00
52859;DHT22;38721;53.098;6.596;2022-08-11T11:31:33;30.40;1.00
52859;DHT22;38721;53.098;6.596;2022-08-11T11:34:14;30.40;1.00
52859;DHT22;38721;53.098;6.596;2022-08-11T11:36:54;30.40;1.00
52859;DHT22;38721;53.098;6.596;2022-08-11T11:39:29;30.80;1.00
52859;DHT22;38721;53.098;6.596;2022-08-11T11:41:58;30.50;1.00
52859;DHT22;38721;53.098;6.596;2022-08-11T11:44:26;30.60;1.00
52859;DHT22;38721;53.098;6.596;2022-08-11T11:46:52;30.80;1.00
52859;DHT22;38721;53.098;6.596;2022-08-11T11:49:21;31.10;1.00
52859;DHT22;38721;53.098;6.596;2022-08-11T11:51:49;31.20;1.00
52859;DHT22;38721;53.098;6.596;2022-08-11T11:54:21;31.40;1.00
52859;DHT22;38721;53.098;6.596;2022-08-11T11:56:47;31.40;1.00
52859;DHT22;38721;53.098;6.596;2022-08-11T11:59:13;31.40;1.00
52859;DHT22;38721;53.098;6.596;2022-08-11T12:01:58;31.30;1.00
52859;DHT22;38721;53.098;6.596;2022-08-11T12:04:26;31.60;1.00
52859;DHT22;38721;53.098;6.596;2022-08-11T12:06:53;31.70;1.00
52859;DHT22;38721;53.098;6.596;2022-08-11T12:09:39;31.00;1.00
52859;DHT22;38721;53.098;6.596;2022-08-11T12:12:06;31.30;1.00
52859;DHT22;38721;53.098;6.596;2022-08-11T12:14:52;31.50;1.00
52859;DHT22;38721;53.098;6.596;2022-08-11T12:17:18;31.50;1.00
52859;DHT22;38721;53.098;6.596;2022-08-11T12:19:45;31.30;1.00
52859;DHT22;38721;53.098;6.596;2022-08-11T12:22:12;31.90;1.00
52859;DHT22;38721;53.098;6.596;2022-08-11T12:24:57;31.90;1.00
52859;DHT22;38721;53.098;6.596;2022-08-11T12:27:41;32.00;1.00
52859;DHT22;38721;53.098;6.596;2022-08-11T12:30:08;32.10;1.00
52859;DHT22;38721;53.098;6.596;2022-08-11T12:32:35;31.60;1.00
52859;DHT22;38721;53.098;6.596;2022-08-11T12:35:03;32.00;1.00
52859;DHT22;38721;53.098;6.596;2022-08-11T12:37:34;32.00;1.00
52859;DHT22;38721;53.098;6.596;2022-08-11T12:40:07;32.20;1.00
52859;DHT22;38721;53.098;6.596;2022-08-11T12:42:53;31.80;1.00
52859;DHT22;38721;53.098;6.596;2022-08-11T12:45:39;32.10;1.00
52859;DHT22;38721;53.098;6.596;2022-08-11T12:48:12;31.90;1.00
52859;DHT22;38721;53.098;6.596;2022-08-11T12:51:23;32.60;1.00
52859;DHT22;38721;53.098;6.596;2022-08-11T12:54:14;31.90;1.00
52859;DHT22;38721;53.098;6.596;2022-08-11T12:56:54;31.40;1.00
52859;DHT22;38721;53.098;6.596;2022-08-11T12:59:41;32.40;1.00
52859;DHT22;38721;53.098;6.596;2022-08-11T13:02:27;32.60;1.00
52859;DHT22;38721;53.098;6.596;2022-08-11T13:05:12;32.60;1.00
52859;DHT22;38721;53.098;6.596;2022-08-11T13:07:41;33.00;1.00
52859;DHT22;38721;53.098;6.596;2022-08-11T13:10:08;32.70;1.00
52859;DHT22;38721;53.098;6.596;2022-08-11T13:12:35;32.80;1.00
52859;DHT22;38721;53.098;6.596;2022-08-11T13:15:20;33.20;1.00
52859;DHT22;38721;53.098;6.596;2022-08-11T13:17:48;32.70;1.00
52859;DHT22;38721;53.098;6.596;2022-08-11T13:20:17;33.00;1.00
52859;DHT22;38721;53.098;6.596;2022-08-11T13:22:46;32.10;1.00
52859;DHT22;38721;53.098;6.596;2022-08-11T13:25:16;32.30;1.00
52859;DHT22;38721;53.098;6.596;2022-08-11T13:27:47;32.40;1.00
52859;DHT22;38721;53.098;6.596;2022-08-11T13:30:14;33.10;1.00
52859;DHT22;38721;53.098;6.596;2022-08-11T13:32:59;33.20;1.00
52859;DHT22;38721;53.098;6.596;2022-08-11T13:35:27;32.80;1.00
52859;DHT22;38721;53.098;6.596;2022-08-11T13:37:53;32.60;1.00
52859;DHT22;38721;53.098;6.596;2022-08-11T13:40:21;32.10;1.00
52859;DHT22;38721;53.098;6.596;2022-08-11T13:42:52;32.70;1.00
52859;DHT22;38721;53.098;6.596;2022-08-11T13:45:23;31.80;1.00
52859;DHT22;38721;53.098;6.596;2022-08-11T13:47:54;32.70;1.00
52859;DHT22;38721;53.098;6.596;2022-08-11T13:50:20;33.10;1.00
52859;DHT22;38721;53.098;6.596;2022-08-11T13:52:48;33.20;1.00
52859;DHT22;38721;53.098;6.596;2022-08-11T13:55:15;33.60;1.00
52859;DHT22;38721;53.098;6.596;2022-08-11T13:57:52;33.30;1.00
52859;DHT22;38721;53.098;6.596;2022-08-11T14:00:19;33.70;1.00
52859;DHT22;38721;53.098;6.596;2022-08-11T14:02:48;33.70;1.00
52859;DHT22;38721;53.098;6.596;2022-08-11T14:05:26;33.50;1.00
52859;DHT22;38721;53.098;6.596;2022-08-11T14:08:02;33.90;1.00
52859;DHT22;38721;53.098;6.596;2022-08-11T14:10:30;33.80;1.00
52859;DHT22;38721;53.098;6.596;2022-08-11T14:13:06;33.70;1.00
52859;DHT22;38721;53.098;6.596;2022-08-11T14:15:53;34.00;1.00
52859;DHT22;38721;53.098;6.596;2022-08-11T14:18:25;33.80;1.00
52859;DHT22;38721;53.098;6.596;2022-08-11T14:20:54;33.60;1.00
52859;DHT22;38721;53.098;6.596;2022-08-11T14:23:41;34.10;1.00
52859;DHT22;38721;53.098;6.596;2022-08-11T14:26:12;34.20;1.00
52859;DHT22;38721;53.098;6.596;2022-08-11T14:28:49;34.40;1.00
52859;DHT22;38721;53.098;6.596;2022-08-11T14:31:17;33.80;1.00
52859;DHT22;38721;53.098;6.596;2022-08-11T14:33:44;34.10;1.00
52859;DHT22;38721;53.098;6.596;2022-08-11T14:36:11;32.90;1.00
52859;DHT22;38721;53.098;6.596;2022-08-11T14:38:38;33.10;1.00
52859;DHT22;38721;53.098;6.596;2022-08-11T14:41:06;33.60;1.00
52859;DHT22;38721;53.098;6.596;2022-08-11T14:43:52;34.10;1.00
52859;DHT22;38721;53.098;6.596;2022-08-11T14:46:39;33.70;1.00
52859;DHT22;38721;53.098;6.596;2022-08-11T14:49:25;33.90;1.00
52859;DHT22;38721;53.098;6.596;2022-08-11T14:51:52;34.80;1.00
52859;DHT22;38721;53.098;6.596;2022-08-11T14:54:23;35.90;1.00
52859;DHT22;38721;53.098;6.596;2022-08-11T14:57:08;34.50;1.00
52859;DHT22;38721;53.098;6.596;2022-08-11T14:59:35;36.20;1.00
52859;DHT22;38721;53.098;6.596;2022-08-11T15:02:03;36.60;1.00
52859;DHT22;38721;53.098;6.596;2022-08-11T15:04:48;35.70;1.00
52859;DHT22;38721;53.098;6.596;2022-08-11T15:07:14;36.80;1.00
52859;DHT22;38721;53.098;6.596;2022-08-11T15:09:42;37.10;1.00
52859;DHT22;38721;53.098;6.596;2022-08-11T15:12:09;36.30;1.00
52859;DHT22;38721;53.098;6.596;2022-08-11T15:14:44;36.70;1.00
52859;DHT22;38721;53.098;6.596;2022-08-11T15:17:30;36.30;1.00
52859;DHT22;38721;53.098;6.596;2022-08-11T15:20:03;36.50;1.00
52859;DHT22;38721;53.098;6.596;2022-08-11T15:22:50;37.00;1.00
52859;DHT22;38721;53.098;6.596;2022-08-11T15:25:35;35.90;1.00
52859;DHT22;38721;53.098;6.596;2022-08-11T15:28:03;37.10;1.00
52859;DHT22;38721;53.098;6.596;2022-08-11T15:30:53;36.60;1.00
52859;DHT22;38721;53.098;6.596;2022-08-11T15:33:39;37.40;1.00
52859;DHT22;38721;53.098;6.596;2022-08-11T15:36:29;37.80;1.00
52859;DHT22;38721;53.098;6.596;2022-08-11T15:39:20;34.40;99.90
52859;DHT22;38721;53.098;6.596;2022-08-11T15:41:56;34.70;99.90
52859;DHT22;38721;53.098;6.596;2022-08-11T15:44:52;37.10;1.00
52859;DHT22;38721;53.098;6.596;2022-08-11T15:47:48;36.50;1.00
52859;DHT22;38721;53.098;6.596;2022-08-11T15:50:26;37.30;1.00
52859;DHT22;38721;53.098;6.596;2022-08-11T15:52:57;37.00;99.90
52859;DHT22;38721;53.098;6.596;2022-08-11T15:55:23;35.10;99.90
52859;DHT22;38721;53.098;6.596;2022-08-11T15:57:52;35.50;99.90
52859;DHT22;38721;53.098;6.596;2022-08-11T16:00:39;33.80;99.90
52859;DHT22;38721;53.098;6.596;2022-08-11T16:03:25;36.10;1.00
52859;DHT22;38721;53.098;6.596;2022-08-11T16:06:11;35.20;99.90
52859;DHT22;38721;53.098;6.596;2022-08-11T16:08:39;34.30;99.90
52859;DHT22;38721;53.098;6.596;2022-08-11T16:11:07;35.00;99.90
52859;DHT22;38721;53.098;6.596;2022-08-11T16:13:35;36.90;99.90
52859;DHT22;38721;53.098;6.596;2022-08-11T16:16:02;36.90;99.90
52859;DHT22;38721;53.098;6.596;2022-08-11T16:18:50;37.80;1.00
52859;DHT22;38721;53.098;6.596;2022-08-11T16:21:27;38.40;99.90
52859;DHT22;38721;53.098;6.596;2022-08-11T16:23:56;38.30;99.90
52859;DHT22;38721;53.098;6.596;2022-08-11T16:26:24;37.20;99.90
52859;DHT22;38721;53.098;6.596;2022-08-11T16:28:52;37.10;99.90
52859;DHT22;38721;53.098;6.596;2022-08-11T16:31:20;35.90;99.90
52859;DHT22;38721;53.098;6.596;2022-08-11T16:33:47;34.80;99.90
52859;DHT22;38721;53.098;6.596;2022-08-11T16:36:14;36.30;99.90
52859;DHT22;38721;53.098;6.596;2022-08-11T16:39:00;35.60;99.90
52859;DHT22;38721;53.098;6.596;2022-08-11T16:41:30;38.80;99.90
52859;DHT22;38721;53.098;6.596;2022-08-11T16:44:16;36.80;99.90
52859;DHT22;38721;53.098;6.596;2022-08-11T16:47:02;35.40;99.90
52859;DHT22;38721;53.098;6.596;2022-08-11T16:50:06;34.00;99.90
52859;DHT22;38721;53.098;6.596;2022-08-11T16:52:32;35.10;99.90
52859;DHT22;38721;53.098;6.596;2022-08-11T16:54:58;34.70;99.90
52859;DHT22;38721;53.098;6.596;2022-08-11T16:57:28;34.70;99.90
52859;DHT22;38721;53.098;6.596;2022-08-11T17:00:15;34.10;99.90
52859;DHT22;38721;53.098;6.596;2022-08-11T17:02:45;34.20;99.90
52859;DHT22;38721;53.098;6.596;2022-08-11T17:05:33;34.30;99.90
52859;DHT22;38721;53.098;6.596;2022-08-11T17:08:37;35.20;99.90
52859;DHT22;38721;53.098;6.596;2022-08-11T17:11:22;34.00;99.90
52859;DHT22;38721;53.098;6.596;2022-08-11T17:14:15;35.20;99.90
52859;DHT22;38721;53.098;6.596;2022-08-11T17:16:41;35.40;99.90
52859;DHT22;38721;53.098;6.596;2022-08-11T17:19:17;34.50;99.90
52859;DHT22;38721;53.098;6.596;2022-08-11T17:21:47;34.50;99.90
52859;DHT22;38721;53.098;6.596;2022-08-11T17:24:38;35.20;99.90
52859;DHT22;38721;53.098;6.596;2022-08-11T17:27:07;34.10;99.90
52859;DHT22;38721;53.098;6.596;2022-08-11T17:29:40;34.60;99.90
52859;DHT22;38721;53.098;6.596;2022-08-11T17:32:10;34.50;99.90
52859;DHT22;38721;53.098;6.596;2022-08-11T17:34:58;35.40;99.90
52859;DHT22;38721;53.098;6.596;2022-08-11T17:37:44;34.20;99.90
52859;DHT22;38721;53.098;6.596;2022-08-11T17:40:13;34.50;99.90
52859;DHT22;38721;53.098;6.596;2022-08-11T17:42:42;34.80;99.90
52859;DHT22;38721;53.098;6.596;2022-08-11T17:45:28;33.40;99.90
52859;DHT22;38721;53.098;6.596;2022-08-11T17:48:12;34.00;99.90
52859;DHT22;38721;53.098;6.596;2022-08-11T17:51:00;34.90;99.90
52859;DHT22;38721;53.098;6.596;2022-08-11T17:53:31;35.00;99.90
52859;DHT22;38721;53.098;6.596;2022-08-11T17:56:17;36.30;99.90
52859;DHT22;38721;53.098;6.596;2022-08-11T17:59:02;35.20;99.90
52859;DHT22;38721;53.098;6.596;2022-08-11T18:01:48;33.50;99.90
52859;DHT22;38721;53.098;6.596;2022-08-11T18:04:15;34.20;99.90
52859;DHT22;38721;53.098;6.596;2022-08-11T18:06:42;34.90;99.90
52859;DHT22;38721;53.098;6.596;2022-08-11T18:09:14;33.90;99.90
52859;DHT22;38721;53.098;6.596;2022-08-11T18:12:00;33.40;99.90
52859;DHT22;38721;53.098;6.596;2022-08-11T18:14:48;32.80;99.90
52859;DHT22;38721;53.098;6.596;2022-08-11T18:17:37;32.80;99.90
52859;DHT22;38721;53.098;6.596;2022-08-11T18:20:23;33.20;99.90
52859;DHT22;38721;53.098;6.596;2022-08-11T18:23:15;30.70;99.90
52859;DHT22;38721;53.098;6.596;2022-08-11T18:26:05;30.10;99.90
52859;DHT22;38721;53.098;6.596;2022-08-11T18:28:54;29.40;99.90
52859;DHT22;38721;53.098;6.596;2022-08-11T18:31:47;29.00;99.90
52859;DHT22;38721;53.098;6.596;2022-08-11T18:34:36;28.10;1.00
52859;DHT22;38721;53.098;6.596;2022-08-11T18:37:30;27.70;1.00
52859;DHT22;38721;53.098;6.596;2022-08-11T18:40:19;27.80;1.00
52859;DHT22;38721;53.098;6.596;2022-08-11T18:43:13;27.30;1.00
52859;DHT22;38721;53.098;6.596;2022-08-11T18:46:05;27.20;1.00
52859;DHT22;38721;53.098;6.596;2022-08-11T18:49:00;27.10;1.00
52859;DHT22;38721;53.098;6.596;2022-08-11T18:51:48;26.90;1.00
52859;DHT22;38721;53.098;6.596;2022-08-11T18:54:39;26.50;1.00
52859;DHT22;38721;53.098;6.596;2022-08-11T18:57:24;26.10;1.00
52859;DHT22;38721;53.098;6.596;2022-08-11T19:00:09;26.30;1.00
52859;DHT22;38721;53.098;6.596;2022-08-11T19:02:57;25.80;1.00
52859;DHT22;38721;53.098;6.596;2022-08-11T19:05:43;25.70;1.00
52859;DHT22;38721;53.098;6.596;2022-08-11T19:08:35;25.50;1.00
52859;DHT22;38721;53.098;6.596;2022-08-11T19:11:21;25.50;1.00
52859;DHT22;38721;53.098;6.596;2022-08-11T19:14:08;25.30;1.00
52859;DHT22;38721;53.098;6.596;2022-08-11T19:16:58;25.10;1.00
52859;DHT22;38721;53.098;6.596;2022-08-11T19:19:44;24.50;1.00
52859;DHT22;38721;53.098;6.596;2022-08-11T19:22:29;24.30;20.20
52859;DHT22;38721;53.098;6.596;2022-08-11T19:25:15;24.10;55.10
52859;DHT22;38721;53.098;6.596;2022-08-11T19:28:03;23.90;96.10
52859;DHT22;38721;53.098;6.596;2022-08-11T19:30:50;23.80;99.90
52859;DHT22;38721;53.098;6.596;2022-08-11T19:33:35;23.60;99.90
52859;DHT22;38721;53.098;6.596;2022-08-11T19:36:21;23.40;99.90
52859;DHT22;38721;53.098;6.596;2022-08-11T19:39:08;23.40;99.90
52859;DHT22;38721;53.098;6.596;2022-08-11T19:41:53;23.40;99.90
52859;DHT22;38721;53.098;6.596;2022-08-11T19:44:39;23.40;99.90
52859;DHT22;38721;53.098;6.596;2022-08-11T19:47:25;23.40;99.90
52859;DHT22;38721;53.098;6.596;2022-08-11T19:50:12;23.10;99.90
52859;DHT22;38721;53.098;6.596;2022-08-11T19:52:58;22.70;99.90
52859;DHT22;38721;53.098;6.596;2022-08-11T19:55:46;22.70;99.90